createdAt,value
2023-02-22T00:01:23.783Z,1007.0
2023-02-22T00:06:23.667Z,1006.9
2023-02-22T00:11:23.779Z,1006.9
2023-02-22T00:16:23.783Z,1006.9
2023-02-22T00:21:23.779Z,1006.9
2023-02-22T00:26:23.712Z,1006.9
2023-02-22T00:31:23.804Z,1006.8
2023-02-22T00:36:23.685Z,1006.8
2023-02-22T00:41:23.794Z,1006.8
2023-02-22T00:46:23.692Z,1006.7
2023-02-22T00:51:23.769Z,1006.7
2023-02-22T01:06:23.697Z,1006.4
2023-02-22T01:11:23.771Z,1006.4
2023-02-22T01:16:23.763Z,1006.3
2023-02-22T01:21:23.783Z,1006.2
2023-02-22T01:26:23.725Z,1006.2
2023-02-22T01:31:23.824Z,1006.3
2023-02-22T01:36:23.706Z,1006.3
2023-02-22T01:41:23.780Z,1006.3
2023-02-22T01:46:23.759Z,1006.1
2023-02-22T01:51:23.773Z,1006.0
2023-02-22T01:56:23.764Z,1005.9
2023-02-22T02:01:23.770Z,1006.2
2023-02-22T02:06:23.713Z,1006.3
2023-02-22T02:11:23.773Z,1006.2
2023-02-22T02:16:23.773Z,1006.2
2023-02-22T02:21:23.813Z,1006.1
2023-02-22T02:26:23.707Z,1006.1
2023-02-22T02:31:23.784Z,1006.0
2023-02-22T02:36:23.720Z,1005.9
2023-02-22T02:41:23.810Z,1005.8
2023-02-22T02:46:23.719Z,1005.8
2023-02-22T02:51:23.803Z,1005.7
2023-02-22T02:56:23.717Z,1005.8
2023-02-22T03:01:23.838Z,1005.7
2023-02-22T03:06:23.713Z,1005.6
2023-02-22T03:11:23.785Z,1005.4
2023-02-22T03:16:23.790Z,1005.2
2023-02-22T03:21:23.823Z,1005.3
2023-02-22T03:26:23.724Z,1005.4
2023-02-22T03:31:23.824Z,1005.3
2023-02-22T03:36:23.746Z,1005.3
2023-02-22T03:41:23.855Z,1005.3
2023-02-22T03:46:23.770Z,1005.3
2023-02-22T03:51:23.812Z,1005.4
2023-02-22T03:56:23.723Z,1005.3
2023-02-22T04:01:23.896Z,1005.3
2023-02-22T04:06:23.750Z,1005.3
2023-02-22T04:11:23.796Z,1005.3
2023-02-22T04:16:23.731Z,1005.2
2023-02-22T04:21:23.830Z,1005.2
2023-02-22T04:26:23.734Z,1005.1
2023-02-22T04:31:23.885Z,1005.1
2023-02-22T04:36:23.726Z,1005.1
2023-02-22T04:41:25.519Z,1005.0
2023-02-22T04:46:23.800Z,1005.1
2023-02-22T04:51:23.834Z,1005.0
2023-02-22T04:56:23.740Z,1005.0
2023-02-22T05:06:23.742Z,1005.0
2023-02-22T05:11:23.828Z,1004.9
2023-02-22T05:16:23.825Z,1004.8
2023-02-22T05:21:23.832Z,1004.8
2023-02-22T05:26:23.738Z,1004.6
2023-02-22T05:31:23.918Z,1004.4
2023-02-22T05:36:23.710Z,1004.4
2023-02-22T05:41:23.797Z,1004.4
2023-02-22T05:46:23.842Z,1004.4
2023-02-22T05:51:23.802Z,1004.4
2023-02-22T05:56:23.733Z,1004.4
2023-02-22T06:01:23.835Z,1004.4
2023-02-22T06:06:23.730Z,1004.4
2023-02-22T06:11:23.797Z,1004.4
2023-02-22T06:16:23.887Z,1004.4
2023-02-22T06:21:23.824Z,1004.4
2023-02-22T06:26:23.744Z,1004.4
2023-02-22T06:31:23.881Z,1004.4
2023-02-22T06:36:23.738Z,1004.3
2023-02-22T06:41:23.833Z,1004.3
2023-02-22T06:46:23.747Z,1004.4
2023-02-22T06:51:23.836Z,1004.3
2023-02-22T06:56:23.740Z,1004.3
2023-02-22T07:01:23.887Z,1004.3
2023-02-22T07:06:23.752Z,1004.3
2023-02-22T07:11:23.839Z,1004.3
2023-02-22T07:16:23.820Z,1004.3
2023-02-22T07:21:23.847Z,1004.4
2023-02-22T07:26:23.786Z,1004.4
2023-02-22T07:31:23.844Z,1004.5
2023-02-22T07:36:23.771Z,1004.6
2023-02-22T07:41:23.856Z,1004.5
2023-02-22T07:46:23.751Z,1004.6
2023-02-22T07:51:23.850Z,1004.6
2023-02-22T07:56:23.778Z,1004.7
2023-02-22T08:01:23.817Z,1004.7
2023-02-22T08:06:23.779Z,1004.7
2023-02-22T08:11:23.875Z,1004.6
2023-02-22T08:16:23.772Z,1004.6
2023-02-22T08:21:23.867Z,1004.7
2023-02-22T08:26:23.782Z,1004.7
2023-02-22T08:31:23.882Z,1004.7
2023-02-22T08:36:23.890Z,1004.7
2023-02-22T08:41:23.870Z,1004.7
2023-02-22T08:46:23.779Z,1004.7
2023-02-22T08:51:23.865Z,1004.7
2023-02-22T08:56:23.799Z,1004.7
2023-02-22T09:01:32.601Z,1004.7
2023-02-22T09:06:23.778Z,1004.8
2023-02-22T09:11:23.875Z,1004.7
2023-02-22T09:16:23.826Z,1004.7
2023-02-22T09:21:23.878Z,1004.8
2023-02-22T09:26:23.843Z,1004.7
2023-02-22T09:31:23.921Z,1004.8
2023-02-22T09:36:26.071Z,1004.8
2023-02-22T09:41:23.875Z,1004.8
2023-02-22T09:46:23.789Z,1004.7
2023-02-22T09:51:23.881Z,1004.7
2023-02-22T09:56:23.807Z,1004.8
2023-02-22T10:01:23.888Z,1004.8
2023-02-22T10:06:23.799Z,1004.8
2023-02-22T10:11:23.899Z,1004.9
2023-02-22T10:16:23.794Z,1004.9
2023-02-22T10:21:23.900Z,1004.9
2023-02-22T10:26:23.821Z,1004.9
2023-02-22T10:31:24.040Z,1004.9
2023-02-22T10:36:23.824Z,1004.9
2023-02-22T10:41:23.910Z,1005.0
2023-02-22T10:46:23.842Z,1005.0
2023-02-22T10:51:23.886Z,1005.0
2023-02-22T10:56:23.874Z,1005.1
2023-02-22T11:01:23.945Z,1005.1
2023-02-22T11:06:23.820Z,1005.1
2023-02-22T11:11:23.919Z,1005.2
2023-02-22T11:16:23.881Z,1005.2
2023-02-22T11:21:23.875Z,1005.1
2023-02-22T11:26:23.898Z,1005.1
2023-02-22T11:31:23.928Z,1005.2
2023-02-22T11:36:23.904Z,1005.2
2023-02-22T11:41:23.916Z,1005.2
2023-02-22T11:46:23.899Z,1005.2
2023-02-22T11:51:23.883Z,1005.2
2023-02-22T11:56:36.897Z,1005.4
2023-02-22T12:01:23.911Z,1005.3
2023-02-22T12:06:23.816Z,1005.4
2023-02-22T12:11:23.931Z,1005.4
2023-02-22T12:16:23.828Z,1005.4
2023-02-22T12:21:23.915Z,1005.4
2023-02-22T12:26:23.824Z,1005.4
2023-02-22T12:31:24.087Z,1005.5
2023-02-22T12:36:23.849Z,1005.5
2023-02-22T12:41:23.944Z,1005.5
2023-02-22T12:46:23.868Z,1005.5
2023-02-22T12:51:23.946Z,1005.5
2023-02-22T12:56:23.843Z,1005.6
2023-02-22T13:01:23.987Z,1005.6
2023-02-22T13:06:23.856Z,1005.7
2023-02-22T13:16:23.871Z,1005.7
2023-02-22T13:21:23.969Z,1005.7
2023-02-22T13:26:23.851Z,1005.7
2023-02-22T13:31:24.089Z,1005.7
2023-02-22T13:36:23.857Z,1005.7
2023-02-22T13:41:23.960Z,1005.7
2023-02-22T13:46:23.940Z,1005.8
2023-02-22T13:51:23.962Z,1005.9
2023-02-22T13:56:23.888Z,1005.9
2023-02-22T14:01:23.944Z,1005.9
2023-02-22T14:06:23.878Z,1006.0
2023-02-22T14:11:23.958Z,1006.0
2023-02-22T14:16:23.886Z,1006.0
2023-02-22T14:21:23.961Z,1006.1
2023-02-22T14:26:23.865Z,1006.1
2023-02-22T14:31:35.470Z,1006.1
2023-02-22T14:36:23.880Z,1006.1
2023-02-22T14:41:23.925Z,1006.1
2023-02-22T14:46:24.080Z,1006.1
2023-02-22T14:51:26.781Z,1006.2
2023-02-22T14:56:23.908Z,1006.2
2023-02-22T15:01:27.248Z,1006.3
2023-02-22T15:06:23.886Z,1006.3
2023-02-22T15:11:23.970Z,1006.4
2023-02-22T15:16:23.967Z,1006.4
2023-02-22T15:21:23.950Z,1006.4
2023-02-22T15:26:23.892Z,1006.4
2023-02-22T15:31:24.048Z,1006.5
2023-02-22T15:36:23.901Z,1006.6
2023-02-22T15:41:23.979Z,1006.6
2023-02-22T15:46:23.923Z,1006.7
2023-02-22T15:51:23.995Z,1006.8
2023-02-22T15:56:23.896Z,1006.8
2023-02-22T16:01:24.043Z,1007.0
2023-02-22T16:06:23.923Z,1007.1
2023-02-22T16:11:23.991Z,1007.1
2023-02-22T16:16:23.993Z,1007.2
2023-02-22T16:21:23.957Z,1007.3
2023-02-22T16:26:23.896Z,1007.3
2023-02-22T16:31:24.036Z,1007.4
2023-02-22T16:36:23.911Z,1007.4
2023-02-22T16:41:23.952Z,1007.6
2023-02-22T16:46:23.913Z,1007.6
2023-02-22T16:51:24.004Z,1007.7
2023-02-22T16:56:23.897Z,1007.7
2023-02-22T17:01:24.153Z,1007.8
2023-02-22T17:06:23.902Z,1007.8
2023-02-22T17:11:23.995Z,1007.9
2023-02-22T17:21:23.955Z,1008.1
2023-02-22T17:26:23.939Z,1008.1
2023-02-22T17:31:24.072Z,1008.1
2023-02-22T17:36:23.902Z,1008.2
2023-02-22T17:41:23.988Z,1008.2
2023-02-22T17:46:23.982Z,1008.3
2023-02-22T17:51:23.956Z,1008.4
2023-02-22T17:56:23.907Z,1008.5
2023-02-22T18:01:24.154Z,1008.5
2023-02-22T18:06:25.275Z,1008.6
2023-02-22T18:11:23.998Z,1008.7
2023-02-22T18:16:23.947Z,1008.9
2023-02-22T18:21:23.967Z,1008.9
2023-02-22T18:26:24.149Z,1009.0
2023-02-22T18:31:24.098Z,1009.1
2023-02-22T18:36:24.070Z,1009.1
2023-02-22T18:41:23.964Z,1009.2
2023-02-22T18:56:23.929Z,1009.3
2023-02-22T19:01:24.024Z,1009.4
2023-02-22T19:06:23.923Z,1009.4
2023-02-22T19:11:23.977Z,1009.5
2023-02-22T19:21:24.024Z,1009.6
2023-02-22T19:26:24.145Z,1009.7
2023-02-22T19:31:24.582Z,1009.8
2023-02-22T19:41:24.044Z,1009.9
2023-02-22T19:46:23.920Z,1009.9
2023-02-22T19:51:24.027Z,1009.9
2023-02-22T19:56:23.937Z,1009.9
2023-02-22T20:01:24.037Z,1010.0
2023-02-22T20:06:23.934Z,1010.1
2023-02-22T20:11:24.031Z,1010.1
2023-02-22T20:16:23.984Z,1010.1
2023-02-22T20:21:23.986Z,1010.2
2023-02-22T20:26:23.946Z,1010.2
2023-02-22T20:31:24.144Z,1010.2
2023-02-22T20:36:23.944Z,1010.3
2023-02-22T20:46:23.949Z,1010.4
2023-02-22T20:51:23.994Z,1010.5
2023-02-22T20:56:23.952Z,1010.5
2023-02-22T21:01:24.042Z,1010.6
2023-02-22T21:06:23.955Z,1010.7
2023-02-22T21:11:24.036Z,1010.7
2023-02-22T21:21:24.006Z,1010.8
2023-02-22T21:26:23.967Z,1010.9
2023-02-22T21:31:24.735Z,1010.9
2023-02-22T21:36:23.953Z,1010.9
2023-02-22T21:41:24.051Z,1011.0
2023-02-22T21:46:24.070Z,1011.0
2023-02-22T21:51:24.022Z,1011.1
2023-02-22T21:56:23.965Z,1011.1
2023-02-22T22:01:24.054Z,1011.1
2023-02-22T22:06:23.971Z,1011.1
2023-02-22T22:11:24.016Z,1011.2
2023-02-22T22:21:24.041Z,1011.3
2023-02-22T22:26:23.990Z,1011.3
2023-02-22T22:31:24.410Z,1011.3
2023-02-22T22:36:23.980Z,1011.3
2023-02-22T22:41:24.029Z,1011.4
2023-02-22T22:46:24.072Z,1011.4
2023-02-22T22:51:24.022Z,1011.4
2023-02-22T22:56:23.977Z,1011.4
2023-02-22T23:01:24.065Z,1011.5
2023-02-22T23:06:23.973Z,1011.6
2023-02-22T23:11:24.030Z,1011.6
2023-02-22T23:16:24.009Z,1011.8
2023-02-22T23:21:24.084Z,1011.8
2023-02-22T23:26:23.975Z,1011.8
2023-02-22T23:31:24.133Z,1011.9
2023-02-22T23:36:23.983Z,1012.0
2023-02-22T23:41:24.079Z,1012.0
2023-02-22T23:46:24.075Z,1012.1
2023-02-22T23:51:24.075Z,1012.1
2023-02-22T23:56:23.998Z,1012.1
